sensor_id;sensor_type;location;lat;lon;timestamp;temperature;humidity
37560;DHT22;23398;50.928;7.084;2023-07-13T00:01:42;20.00;52.40
37560;DHT22;23398;50.928;7.084;2023-07-13T00:04:08;19.70;52.40
37560;DHT22;23398;50.928;7.084;2023-07-13T00:06:34;19.60;52.50
37560;DHT22;23398;50.928;7.084;2023-07-13T00:09:00;19.60;52.60
37560;DHT22;23398;50.928;7.084;2023-07-13T00:11:27;19.50;52.70
37560;DHT22;23398;50.928;7.084;2023-07-13T00:13:52;19.50;52.90
37560;DHT22;23398;50.928;7.084;2023-07-13T00:16:18;19.80;53.20
37560;DHT22;23398;50.928;7.084;2023-07-13T00:18:45;19.40;53.20
37560;DHT22;23398;50.928;7.084;2023-07-13T00:21:11;19.30;53.20
37560;DHT22;23398;50.928;7.084;2023-07-13T00:23:39;19.30;53.40
37560;DHT22;23398;50.928;7.084;2023-07-13T00:26:06;19.20;53.50
37560;DHT22;23398;50.928;7.084;2023-07-13T00:28:33;19.20;53.60
37560;DHT22;23398;50.928;7.084;2023-07-13T00:30:59;19.20;53.80
37560;DHT22;23398;50.928;7.084;2023-07-13T00:33:26;19.20;54.00
37560;DHT22;23398;50.928;7.084;2023-07-13T00:35:53;19.10;54.10
37560;DHT22;23398;50.928;7.084;2023-07-13T00:38:19;19.10;54.40
37560;DHT22;23398;50.928;7.084;2023-07-13T00:40:44;19.10;54.60
37560;DHT22;23398;50.928;7.084;2023-07-13T00:43:16;19.10;54.70
37560;DHT22;23398;50.928;7.084;2023-07-13T00:48:08;19.20;55.20
37560;DHT22;23398;50.928;7.084;2023-07-13T00:50:33;19.50;55.30
37560;DHT22;23398;50.928;7.084;2023-07-13T00:52:59;19.20;55.00
37560;DHT22;23398;50.928;7.084;2023-07-13T00:55:25;19.30;55.20
37560;DHT22;23398;50.928;7.084;2023-07-13T00:57:50;19.30;55.10
37560;DHT22;23398;50.928;7.084;2023-07-13T01:00:16;19.30;55.10
37560;DHT22;23398;50.928;7.084;2023-07-13T01:02:45;19.40;55.10
37560;DHT22;23398;50.928;7.084;2023-07-13T01:05:17;19.40;55.10
37560;DHT22;23398;50.928;7.084;2023-07-13T01:07:44;19.40;55.20
37560;DHT22;23398;50.928;7.084;2023-07-13T01:10:12;19.50;55.10
37560;DHT22;23398;50.928;7.084;2023-07-13T01:12:38;19.50;55.10
37560;DHT22;23398;50.928;7.084;2023-07-13T01:15:04;19.40;55.00
37560;DHT22;23398;50.928;7.084;2023-07-13T01:17:33;19.50;55.20
37560;DHT22;23398;50.928;7.084;2023-07-13T01:19:59;19.50;55.30
37560;DHT22;23398;50.928;7.084;2023-07-13T01:22:25;19.40;55.20
37560;DHT22;23398;50.928;7.084;2023-07-13T01:24:53;19.40;55.40
37560;DHT22;23398;50.928;7.084;2023-07-13T01:27:26;19.40;55.70
37560;DHT22;23398;50.928;7.084;2023-07-13T01:29:52;19.30;56.30
37560;DHT22;23398;50.928;7.084;2023-07-13T01:32:23;19.30;56.40
37560;DHT22;23398;50.928;7.084;2023-07-13T01:34:53;19.20;56.60
37560;DHT22;23398;50.928;7.084;2023-07-13T01:37:23;19.10;56.70
37560;DHT22;23398;50.928;7.084;2023-07-13T01:39:49;19.00;56.80
37560;DHT22;23398;50.928;7.084;2023-07-13T01:42:15;18.90;57.00
37560;DHT22;23398;50.928;7.084;2023-07-13T01:44:40;19.10;57.30
37560;DHT22;23398;50.928;7.084;2023-07-13T01:47:06;18.70;57.20
37560;DHT22;23398;50.928;7.084;2023-07-13T01:49:31;18.70;57.30
37560;DHT22;23398;50.928;7.084;2023-07-13T01:51:57;18.60;57.30
37560;DHT22;23398;50.928;7.084;2023-07-13T01:54:23;18.70;57.70
37560;DHT22;23398;50.928;7.084;2023-07-13T01:56:48;18.40;57.60
37560;DHT22;23398;50.928;7.084;2023-07-13T01:59:14;18.30;57.90
37560;DHT22;23398;50.928;7.084;2023-07-13T02:01:40;18.20;57.90
37560;DHT22;23398;50.928;7.084;2023-07-13T02:04:05;18.10;57.80
37560;DHT22;23398;50.928;7.084;2023-07-13T02:06:31;18.10;57.90
37560;DHT22;23398;50.928;7.084;2023-07-13T02:08:57;17.90;57.90
37560;DHT22;23398;50.928;7.084;2023-07-13T02:11:23;17.80;58.10
37560;DHT22;23398;50.928;7.084;2023-07-13T02:13:50;18.00;58.50
37560;DHT22;23398;50.928;7.084;2023-07-13T02:16:15;17.70;58.50
37560;DHT22;23398;50.928;7.084;2023-07-13T02:18:41;17.50;58.80
37560;DHT22;23398;50.928;7.084;2023-07-13T02:21:07;17.80;59.40
37560;DHT22;23398;50.928;7.084;2023-07-13T02:23:32;17.60;59.60
37560;DHT22;23398;50.928;7.084;2023-07-13T02:25:59;17.50;59.90
37560;DHT22;23398;50.928;7.084;2023-07-13T02:28:25;17.50;60.10
37560;DHT22;23398;50.928;7.084;2023-07-13T02:30:51;17.40;60.20
37560;DHT22;23398;50.928;7.084;2023-07-13T02:33:17;17.40;60.50
37560;DHT22;23398;50.928;7.084;2023-07-13T02:35:42;17.30;60.50
37560;DHT22;23398;50.928;7.084;2023-07-13T02:38:08;17.70;61.40
37560;DHT22;23398;50.928;7.084;2023-07-13T02:40:34;17.40;61.30
37560;DHT22;23398;50.928;7.084;2023-07-13T02:43:01;17.30;61.30
37560;DHT22;23398;50.928;7.084;2023-07-13T02:45:27;17.30;61.50
37560;DHT22;23398;50.928;7.084;2023-07-13T02:47:52;17.30;61.70
37560;DHT22;23398;50.928;7.084;2023-07-13T02:50:18;17.70;62.10
37560;DHT22;23398;50.928;7.084;2023-07-13T02:52:44;17.20;61.70
37560;DHT22;23398;50.928;7.084;2023-07-13T02:55:09;17.50;62.10
37560;DHT22;23398;50.928;7.084;2023-07-13T02:57:35;17.10;61.80
37560;DHT22;23398;50.928;7.084;2023-07-13T03:00:02;17.10;61.90
37560;DHT22;23398;50.928;7.084;2023-07-13T03:02:31;17.10;62.10
37560;DHT22;23398;50.928;7.084;2023-07-13T03:04:56;17.00;62.00
37560;DHT22;23398;50.928;7.084;2023-07-13T03:07:22;17.00;62.00
37560;DHT22;23398;50.928;7.084;2023-07-13T03:09:47;17.00;62.20
37560;DHT22;23398;50.928;7.084;2023-07-13T03:12:13;16.90;62.30
37560;DHT22;23398;50.928;7.084;2023-07-13T03:14:39;17.00;62.60
37560;DHT22;23398;50.928;7.084;2023-07-13T03:17:04;16.90;62.60
37560;DHT22;23398;50.928;7.084;2023-07-13T03:19:30;16.80;62.70
37560;DHT22;23398;50.928;7.084;2023-07-13T03:21:55;16.80;63.00
37560;DHT22;23398;50.928;7.084;2023-07-13T03:24:21;16.70;63.10
37560;DHT22;23398;50.928;7.084;2023-07-13T03:26:49;16.70;63.40
37560;DHT22;23398;50.928;7.084;2023-07-13T03:29:15;16.60;63.80
37560;DHT22;23398;50.928;7.084;2023-07-13T03:31:41;16.60;63.50
37560;DHT22;23398;50.928;7.084;2023-07-13T03:34:06;16.60;63.60
37560;DHT22;23398;50.928;7.084;2023-07-13T03:36:32;16.50;63.70
37560;DHT22;23398;50.928;7.084;2023-07-13T03:39:00;16.60;63.90
37560;DHT22;23398;50.928;7.084;2023-07-13T03:41:26;16.50;63.80
37560;DHT22;23398;50.928;7.084;2023-07-13T03:43:52;16.60;64.10
37560;DHT22;23398;50.928;7.084;2023-07-13T03:46:18;16.50;64.20
37560;DHT22;23398;50.928;7.084;2023-07-13T03:48:45;16.50;64.40
37560;DHT22;23398;50.928;7.084;2023-07-13T03:51:13;16.50;64.60
37560;DHT22;23398;50.928;7.084;2023-07-13T03:53:41;16.50;64.80
37560;DHT22;23398;50.928;7.084;2023-07-13T03:56:07;16.50;65.70
37560;DHT22;23398;50.928;7.084;2023-07-13T03:58:38;16.50;65.10
37560;DHT22;23398;50.928;7.084;2023-07-13T04:01:07;16.50;65.00
37560;DHT22;23398;50.928;7.084;2023-07-13T04:03:33;16.80;65.20
37560;DHT22;23398;50.928;7.084;2023-07-13T04:06:00;16.60;65.00
37560;DHT22;23398;50.928;7.084;2023-07-13T04:08:27;16.60;65.30
37560;DHT22;23398;50.928;7.084;2023-07-13T04:10:53;16.60;65.20
37560;DHT22;23398;50.928;7.084;2023-07-13T04:13:18;16.60;65.10
37560;DHT22;23398;50.928;7.084;2023-07-13T04:15:44;16.60;65.10
37560;DHT22;23398;50.928;7.084;2023-07-13T04:18:09;17.00;65.50
37560;DHT22;23398;50.928;7.084;2023-07-13T04:20:35;16.60;65.40
37560;DHT22;23398;50.928;7.084;2023-07-13T04:23:01;16.70;65.70
37560;DHT22;23398;50.928;7.084;2023-07-13T04:25:26;16.70;65.90
37560;DHT22;23398;50.928;7.084;2023-07-13T04:27:52;16.70;66.10
37560;DHT22;23398;50.928;7.084;2023-07-13T04:30:19;16.80;66.40
37560;DHT22;23398;50.928;7.084;2023-07-13T04:32:44;16.70;66.30
37560;DHT22;23398;50.928;7.084;2023-07-13T04:35:10;16.70;66.50
37560;DHT22;23398;50.928;7.084;2023-07-13T04:37:36;16.80;66.80
37560;DHT22;23398;50.928;7.084;2023-07-13T04:40:03;16.80;66.80
37560;DHT22;23398;50.928;7.084;2023-07-13T04:42:31;16.90;67.10
37560;DHT22;23398;50.928;7.084;2023-07-13T04:44:57;17.00;67.30
37560;DHT22;23398;50.928;7.084;2023-07-13T04:47:23;17.00;67.50
37560;DHT22;23398;50.928;7.084;2023-07-13T04:49:49;17.00;67.10
37560;DHT22;23398;50.928;7.084;2023-07-13T04:52:14;17.10;66.70
37560;DHT22;23398;50.928;7.084;2023-07-13T04:54:40;17.20;66.50
37560;DHT22;23398;50.928;7.084;2023-07-13T04:57:06;17.30;67.30
37560;DHT22;23398;50.928;7.084;2023-07-13T04:59:33;17.40;66.20
37560;DHT22;23398;50.928;7.084;2023-07-13T05:01:58;17.50;65.90
37560;DHT22;23398;50.928;7.084;2023-07-13T05:04:24;17.90;66.30
37560;DHT22;23398;50.928;7.084;2023-07-13T05:06:49;17.80;66.00
37560;DHT22;23398;50.928;7.084;2023-07-13T05:09:15;17.90;65.80
37560;DHT22;23398;50.928;7.084;2023-07-13T05:11:41;18.10;65.50
37560;DHT22;23398;50.928;7.084;2023-07-13T05:14:06;18.20;65.60
37560;DHT22;23398;50.928;7.084;2023-07-13T05:16:32;18.40;65.20
37560;DHT22;23398;50.928;7.084;2023-07-13T05:18:58;18.60;64.80
37560;DHT22;23398;50.928;7.084;2023-07-13T05:21:24;18.60;64.50
37560;DHT22;23398;50.928;7.084;2023-07-13T05:23:50;18.80;64.30
37560;DHT22;23398;50.928;7.084;2023-07-13T05:26:15;18.90;64.20
37560;DHT22;23398;50.928;7.084;2023-07-13T05:28:42;19.10;64.20
37560;DHT22;23398;50.928;7.084;2023-07-13T05:31:08;19.20;64.70
37560;DHT22;23398;50.928;7.084;2023-07-13T05:33:34;19.40;63.60
37560;DHT22;23398;50.928;7.084;2023-07-13T05:36:00;19.50;63.30
37560;DHT22;23398;50.928;7.084;2023-07-13T05:38:26;19.70;63.20
37560;DHT22;23398;50.928;7.084;2023-07-13T05:40:54;19.80;63.00
37560;DHT22;23398;50.928;7.084;2023-07-13T05:43:20;19.90;62.80
37560;DHT22;23398;50.928;7.084;2023-07-13T05:45:46;20.10;62.70
37560;DHT22;23398;50.928;7.084;2023-07-13T05:48:11;20.20;62.30
37560;DHT22;23398;50.928;7.084;2023-07-13T05:50:37;20.40;62.10
37560;DHT22;23398;50.928;7.084;2023-07-13T05:53:02;20.80;62.40
37560;DHT22;23398;50.928;7.084;2023-07-13T05:55:28;20.70;62.10
37560;DHT22;23398;50.928;7.084;2023-07-13T05:57:54;20.90;62.20
37560;DHT22;23398;50.928;7.084;2023-07-13T06:00:20;21.00;61.80
37560;DHT22;23398;50.928;7.084;2023-07-13T06:02:45;21.20;61.50
37560;DHT22;23398;50.928;7.084;2023-07-13T06:05:11;21.40;61.30
37560;DHT22;23398;50.928;7.084;2023-07-13T06:07:37;21.70;61.20
37560;DHT22;23398;50.928;7.084;2023-07-13T06:10:03;22.10;61.00
37560;DHT22;23398;50.928;7.084;2023-07-13T06:12:28;22.00;60.20
37560;DHT22;23398;50.928;7.084;2023-07-13T06:14:54;22.20;60.10
37560;DHT22;23398;50.928;7.084;2023-07-13T06:17:19;22.40;60.40
37560;DHT22;23398;50.928;7.084;2023-07-13T06:19:45;22.60;59.30
37560;DHT22;23398;50.928;7.084;2023-07-13T06:22:11;22.80;59.30
37560;DHT22;23398;50.928;7.084;2023-07-13T06:24:36;23.00;59.00
37560;DHT22;23398;50.928;7.084;2023-07-13T06:27:02;23.20;58.40
37560;DHT22;23398;50.928;7.084;2023-07-13T06:29:28;23.40;58.30
37560;DHT22;23398;50.928;7.084;2023-07-13T06:31:53;23.60;57.90
37560;DHT22;23398;50.928;7.084;2023-07-13T06:34:19;23.70;57.60
37560;DHT22;23398;50.928;7.084;2023-07-13T06:36:45;23.80;57.60
37560;DHT22;23398;50.928;7.084;2023-07-13T06:39:10;24.00;57.40
37560;DHT22;23398;50.928;7.084;2023-07-13T06:41:36;24.20;57.00
37560;DHT22;23398;50.928;7.084;2023-07-13T06:44:03;24.40;56.80
37560;DHT22;23398;50.928;7.084;2023-07-13T06:46:29;24.60;56.80
37560;DHT22;23398;50.928;7.084;2023-07-13T06:48:56;24.80;56.70
37560;DHT22;23398;50.928;7.084;2023-07-13T06:51:21;25.10;56.50
37560;DHT22;23398;50.928;7.084;2023-07-13T06:53:47;25.50;56.10
37560;DHT22;23398;50.928;7.084;2023-07-13T06:56:13;26.00;55.80
37560;DHT22;23398;50.928;7.084;2023-07-13T06:58:38;26.50;55.70
37560;DHT22;23398;50.928;7.084;2023-07-13T07:01:05;27.00;55.00
37560;DHT22;23398;50.928;7.084;2023-07-13T07:03:30;27.70;54.80
37560;DHT22;23398;50.928;7.084;2023-07-13T07:06:22;28.50;53.50
37560;DHT22;23398;50.928;7.084;2023-07-13T07:08:49;29.70;53.90
37560;DHT22;23398;50.928;7.084;2023-07-13T07:11:21;30.80;51.80
37560;DHT22;23398;50.928;7.084;2023-07-13T07:13:48;32.10;50.40
37560;DHT22;23398;50.928;7.084;2023-07-13T07:16:14;33.30;47.90
37560;DHT22;23398;50.928;7.084;2023-07-13T07:18:40;34.40;45.80
37560;DHT22;23398;50.928;7.084;2023-07-13T07:21:05;35.30;43.60
37560;DHT22;23398;50.928;7.084;2023-07-13T07:23:31;36.20;42.70
37560;DHT22;23398;50.928;7.084;2023-07-13T07:25:57;37.10;41.20
37560;DHT22;23398;50.928;7.084;2023-07-13T07:28:23;37.90;39.70
37560;DHT22;23398;50.928;7.084;2023-07-13T07:30:49;38.80;38.60
37560;DHT22;23398;50.928;7.084;2023-07-13T07:33:17;39.70;37.40
37560;DHT22;23398;50.928;7.084;2023-07-13T07:35:43;40.50;35.80
37560;DHT22;23398;50.928;7.084;2023-07-13T07:38:09;41.10;35.00
37560;DHT22;23398;50.928;7.084;2023-07-13T07:40:38;41.80;34.00
37560;DHT22;23398;50.928;7.084;2023-07-13T07:43:04;42.40;33.30
37560;DHT22;23398;50.928;7.084;2023-07-13T07:45:30;43.10;32.00
37560;DHT22;23398;50.928;7.084;2023-07-13T07:47:55;43.80;31.50
37560;DHT22;23398;50.928;7.084;2023-07-13T07:50:24;44.50;30.40
37560;DHT22;23398;50.928;7.084;2023-07-13T07:52:50;45.20;29.70
37560;DHT22;23398;50.928;7.084;2023-07-13T07:55:16;45.70;28.90
37560;DHT22;23398;50.928;7.084;2023-07-13T07:57:42;46.20;28.20
37560;DHT22;23398;50.928;7.084;2023-07-13T08:00:07;46.60;27.60
37560;DHT22;23398;50.928;7.084;2023-07-13T08:02:33;46.90;27.60
37560;DHT22;23398;50.928;7.084;2023-07-13T08:04:59;47.10;27.00
37560;DHT22;23398;50.928;7.084;2023-07-13T08:07:24;47.30;26.60
37560;DHT22;23398;50.928;7.084;2023-07-13T08:09:52;47.30;26.20
37560;DHT22;23398;50.928;7.084;2023-07-13T08:12:18;47.20;26.50
37560;DHT22;23398;50.928;7.084;2023-07-13T08:14:43;47.00;25.70
37560;DHT22;23398;50.928;7.084;2023-07-13T08:17:09;46.70;26.20
37560;DHT22;23398;50.928;7.084;2023-07-13T08:19:34;46.30;26.20
37560;DHT22;23398;50.928;7.084;2023-07-13T08:22:00;45.90;26.40
37560;DHT22;23398;50.928;7.084;2023-07-13T08:24:25;45.60;26.50
37560;DHT22;23398;50.928;7.084;2023-07-13T08:26:51;45.30;27.00
37560;DHT22;23398;50.928;7.084;2023-07-13T08:29:17;44.90;26.90
37560;DHT22;23398;50.928;7.084;2023-07-13T08:31:43;44.50;27.20
37560;DHT22;23398;50.928;7.084;2023-07-13T08:34:08;44.40;27.40
37560;DHT22;23398;50.928;7.084;2023-07-13T08:36:34;44.30;27.60
37560;DHT22;23398;50.928;7.084;2023-07-13T08:39:00;44.50;27.70
37560;DHT22;23398;50.928;7.084;2023-07-13T08:41:25;44.60;27.10
37560;DHT22;23398;50.928;7.084;2023-07-13T08:43:56;44.70;27.20
37560;DHT22;23398;50.928;7.084;2023-07-13T08:46:34;44.90;27.00
37560;DHT22;23398;50.928;7.084;2023-07-13T08:49:04;45.10;27.20
37560;DHT22;23398;50.928;7.084;2023-07-13T08:54:19;45.50;26.60
37560;DHT22;23398;50.928;7.084;2023-07-13T08:56:46;45.70;26.50
37560;DHT22;23398;50.928;7.084;2023-07-13T08:59:18;45.90;26.10
37560;DHT22;23398;50.928;7.084;2023-07-13T09:04:48;46.00;26.60
37560;DHT22;23398;50.928;7.084;2023-07-13T09:10:14;46.00;25.90
37560;DHT22;23398;50.928;7.084;2023-07-13T09:13:04;46.00;26.00
37560;DHT22;23398;50.928;7.084;2023-07-13T09:15:37;46.00;26.00
37560;DHT22;23398;50.928;7.084;2023-07-13T09:20:54;45.80;25.90
37560;DHT22;23398;50.928;7.084;2023-07-13T09:23:23;45.60;25.90
37560;DHT22;23398;50.928;7.084;2023-07-13T09:25:54;45.40;25.60
37560;DHT22;23398;50.928;7.084;2023-07-13T09:28:27;45.10;25.70
37560;DHT22;23398;50.928;7.084;2023-07-13T09:31:32;44.80;25.80
37560;DHT22;23398;50.928;7.084;2023-07-13T09:34:01;44.20;26.40
37560;DHT22;23398;50.928;7.084;2023-07-13T09:36:30;43.80;26.50
37560;DHT22;23398;50.928;7.084;2023-07-13T09:39:08;43.40;26.60
37560;DHT22;23398;50.928;7.084;2023-07-13T09:47:01;42.40;27.40
37560;DHT22;23398;50.928;7.084;2023-07-13T09:49:31;42.10;27.30
37560;DHT22;23398;50.928;7.084;2023-07-13T09:52:06;41.90;27.60
37560;DHT22;23398;50.928;7.084;2023-07-13T09:54:36;41.70;28.00
37560;DHT22;23398;50.928;7.084;2023-07-13T09:57:08;41.50;27.80
37560;DHT22;23398;50.928;7.084;2023-07-13T09:59:41;41.50;28.00
37560;DHT22;23398;50.928;7.084;2023-07-13T10:02:33;41.40;28.50
37560;DHT22;23398;50.928;7.084;2023-07-13T10:05:04;41.50;28.30
37560;DHT22;23398;50.928;7.084;2023-07-13T10:07:31;41.60;27.90
37560;DHT22;23398;50.928;7.084;2023-07-13T10:09:59;41.60;27.90
37560;DHT22;23398;50.928;7.084;2023-07-13T10:12:29;41.70;28.00
37560;DHT22;23398;50.928;7.084;2023-07-13T10:14:57;41.80;28.30
37560;DHT22;23398;50.928;7.084;2023-07-13T10:17:30;42.10;27.90
37560;DHT22;23398;50.928;7.084;2023-07-13T10:20:01;42.40;27.80
37560;DHT22;23398;50.928;7.084;2023-07-13T10:22:47;42.70;27.90
37560;DHT22;23398;50.928;7.084;2023-07-13T10:27:43;43.50;27.20
37560;DHT22;23398;50.928;7.084;2023-07-13T10:30:17;43.90;26.60
37560;DHT22;23398;50.928;7.084;2023-07-13T10:32:45;44.30;26.60
37560;DHT22;23398;50.928;7.084;2023-07-13T10:35:12;44.70;26.30
37560;DHT22;23398;50.928;7.084;2023-07-13T10:38:03;45.00;25.70
37560;DHT22;23398;50.928;7.084;2023-07-13T10:43:09;45.00;25.30
37560;DHT22;23398;50.928;7.084;2023-07-13T10:45:38;44.70;25.60
37560;DHT22;23398;50.928;7.084;2023-07-13T10:48:05;44.30;25.60
37560;DHT22;23398;50.928;7.084;2023-07-13T10:50:32;43.90;25.90
37560;DHT22;23398;50.928;7.084;2023-07-13T10:53:27;43.50;26.20
37560;DHT22;23398;50.928;7.084;2023-07-13T11:03:16;41.20;26.90
37560;DHT22;23398;50.928;7.084;2023-07-13T11:05:42;40.60;28.10
37560;DHT22;23398;50.928;7.084;2023-07-13T11:08:34;39.90;28.30
37560;DHT22;23398;50.928;7.084;2023-07-13T11:11:03;39.10;28.60
37560;DHT22;23398;50.928;7.084;2023-07-13T11:18:52;37.50;29.90
37560;DHT22;23398;50.928;7.084;2023-07-13T11:21:22;37.00;29.80
37560;DHT22;23398;50.928;7.084;2023-07-13T11:24:14;36.70;30.50
37560;DHT22;23398;50.928;7.084;2023-07-13T11:26:51;36.20;30.70
37560;DHT22;23398;50.928;7.084;2023-07-13T11:31:51;35.60;31.30
37560;DHT22;23398;50.928;7.084;2023-07-13T11:36:53;34.80;32.70
37560;DHT22;23398;50.928;7.084;2023-07-13T11:39:31;34.50;33.10
37560;DHT22;23398;50.928;7.084;2023-07-13T11:42:00;34.10;33.50
37560;DHT22;23398;50.928;7.084;2023-07-13T11:44:29;33.80;34.00
37560;DHT22;23398;50.928;7.084;2023-07-13T11:46:57;33.60;33.90
37560;DHT22;23398;50.928;7.084;2023-07-13T11:49:29;33.40;34.90
37560;DHT22;23398;50.928;7.084;2023-07-13T11:51:56;33.20;35.00
37560;DHT22;23398;50.928;7.084;2023-07-13T11:56:48;32.80;35.30
37560;DHT22;23398;50.928;7.084;2023-07-13T11:59:15;32.60;36.00
37560;DHT22;23398;50.928;7.084;2023-07-13T12:01:46;32.50;36.00
37560;DHT22;23398;50.928;7.084;2023-07-13T12:04:35;32.40;35.60
37560;DHT22;23398;50.928;7.084;2023-07-13T12:07:14;32.20;35.70
37560;DHT22;23398;50.928;7.084;2023-07-13T12:09:41;32.10;36.00
37560;DHT22;23398;50.928;7.084;2023-07-13T12:12:19;31.80;36.00
37560;DHT22;23398;50.928;7.084;2023-07-13T12:14:44;31.60;36.60
37560;DHT22;23398;50.928;7.084;2023-07-13T12:17:16;31.40;37.20
37560;DHT22;23398;50.928;7.084;2023-07-13T12:19:43;31.20;37.70
37560;DHT22;23398;50.928;7.084;2023-07-13T12:22:12;31.10;37.90
37560;DHT22;23398;50.928;7.084;2023-07-13T12:24:40;31.00;38.20
37560;DHT22;23398;50.928;7.084;2023-07-13T12:27:16;31.00;37.80
37560;DHT22;23398;50.928;7.084;2023-07-13T12:29:50;30.90;38.00
37560;DHT22;23398;50.928;7.084;2023-07-13T12:32:17;30.90;38.20
37560;DHT22;23398;50.928;7.084;2023-07-13T12:35:15;30.90;37.40
37560;DHT22;23398;50.928;7.084;2023-07-13T12:37:45;30.80;37.40
37560;DHT22;23398;50.928;7.084;2023-07-13T12:40:17;30.80;37.40
37560;DHT22;23398;50.928;7.084;2023-07-13T12:42:46;30.80;37.80
37560;DHT22;23398;50.928;7.084;2023-07-13T12:45:27;30.70;37.40
37560;DHT22;23398;50.928;7.084;2023-07-13T12:47:59;30.70;37.60
37560;DHT22;23398;50.928;7.084;2023-07-13T12:50:39;30.70;37.80
37560;DHT22;23398;50.928;7.084;2023-07-13T12:53:18;30.70;37.90
37560;DHT22;23398;50.928;7.084;2023-07-13T12:55:54;30.70;38.10
37560;DHT22;23398;50.928;7.084;2023-07-13T13:00:55;30.90;37.80
37560;DHT22;23398;50.928;7.084;2023-07-13T13:03:31;31.00;37.60
37560;DHT22;23398;50.928;7.084;2023-07-13T13:08:33;31.20;38.20
37560;DHT22;23398;50.928;7.084;2023-07-13T13:10:59;31.30;37.40
37560;DHT22;23398;50.928;7.084;2023-07-13T13:13:25;31.30;37.40
37560;DHT22;23398;50.928;7.084;2023-07-13T13:15:51;31.40;37.30
37560;DHT22;23398;50.928;7.084;2023-07-13T13:18:22;31.40;36.50
37560;DHT22;23398;50.928;7.084;2023-07-13T13:20:49;31.40;36.30
37560;DHT22;23398;50.928;7.084;2023-07-13T13:23:17;31.50;36.40
37560;DHT22;23398;50.928;7.084;2023-07-13T13:25:50;31.60;36.50
37560;DHT22;23398;50.928;7.084;2023-07-13T13:28:18;31.60;36.90
37560;DHT22;23398;50.928;7.084;2023-07-13T13:30:45;31.70;36.40
37560;DHT22;23398;50.928;7.084;2023-07-13T13:33:15;31.60;36.50
37560;DHT22;23398;50.928;7.084;2023-07-13T13:35:41;31.70;36.70
37560;DHT22;23398;50.928;7.084;2023-07-13T13:38:14;31.70;36.10
37560;DHT22;23398;50.928;7.084;2023-07-13T13:40:44;31.70;35.70
37560;DHT22;23398;50.928;7.084;2023-07-13T13:43:24;31.80;36.00
37560;DHT22;23398;50.928;7.084;2023-07-13T13:45:58;31.70;35.90
37560;DHT22;23398;50.928;7.084;2023-07-13T13:48:31;31.70;35.40
37560;DHT22;23398;50.928;7.084;2023-07-13T13:50:58;31.70;36.00
37560;DHT22;23398;50.928;7.084;2023-07-13T13:53:25;31.60;36.00
37560;DHT22;23398;50.928;7.084;2023-07-13T13:55:51;31.60;36.60
37560;DHT22;23398;50.928;7.084;2023-07-13T13:58:21;31.50;36.30
37560;DHT22;23398;50.928;7.084;2023-07-13T14:00:47;31.40;36.50
37560;DHT22;23398;50.928;7.084;2023-07-13T14:03:16;31.30;36.40
37560;DHT22;23398;50.928;7.084;2023-07-13T14:05:43;31.20;36.90
37560;DHT22;23398;50.928;7.084;2023-07-13T14:08:16;31.20;36.80
37560;DHT22;23398;50.928;7.084;2023-07-13T14:10:43;31.10;36.60
37560;DHT22;23398;50.928;7.084;2023-07-13T14:13:17;31.10;37.10
37560;DHT22;23398;50.928;7.084;2023-07-13T14:15:44;31.10;37.20
37560;DHT22;23398;50.928;7.084;2023-07-13T14:18:10;31.00;37.20
37560;DHT22;23398;50.928;7.084;2023-07-13T14:20:37;31.00;37.90
37560;DHT22;23398;50.928;7.084;2023-07-13T14:23:02;31.00;37.00
37560;DHT22;23398;50.928;7.084;2023-07-13T14:25:28;31.10;37.60
37560;DHT22;23398;50.928;7.084;2023-07-13T14:27:57;31.00;37.30
37560;DHT22;23398;50.928;7.084;2023-07-13T14:30:24;31.10;37.90
37560;DHT22;23398;50.928;7.084;2023-07-13T14:32:50;31.10;37.40
37560;DHT22;23398;50.928;7.084;2023-07-13T14:35:18;31.10;36.90
37560;DHT22;23398;50.928;7.084;2023-07-13T14:37:46;31.10;37.50
37560;DHT22;23398;50.928;7.084;2023-07-13T14:40:25;31.10;37.50
37560;DHT22;23398;50.928;7.084;2023-07-13T14:42:51;31.10;37.30
37560;DHT22;23398;50.928;7.084;2023-07-13T14:45:19;31.10;37.00
37560;DHT22;23398;50.928;7.084;2023-07-13T14:47:46;31.00;37.00
37560;DHT22;23398;50.928;7.084;2023-07-13T14:50:20;31.00;37.00
37560;DHT22;23398;50.928;7.084;2023-07-13T14:52:47;31.00;37.00
37560;DHT22;23398;50.928;7.084;2023-07-13T14:55:15;31.00;37.30
37560;DHT22;23398;50.928;7.084;2023-07-13T14:57:41;31.00;37.20
37560;DHT22;23398;50.928;7.084;2023-07-13T15:00:14;31.00;37.10
37560;DHT22;23398;50.928;7.084;2023-07-13T15:02:51;31.10;36.90
37560;DHT22;23398;50.928;7.084;2023-07-13T15:05:24;31.10;37.00
37560;DHT22;23398;50.928;7.084;2023-07-13T15:07:51;31.10;37.00
37560;DHT22;23398;50.928;7.084;2023-07-13T15:10:23;31.10;37.30
37560;DHT22;23398;50.928;7.084;2023-07-13T15:12:52;31.10;37.20
37560;DHT22;23398;50.928;7.084;2023-07-13T15:15:18;31.10;37.40
37560;DHT22;23398;50.928;7.084;2023-07-13T15:17:46;31.10;37.40
37560;DHT22;23398;50.928;7.084;2023-07-13T15:20:32;31.10;37.50
37560;DHT22;23398;50.928;7.084;2023-07-13T15:22:58;31.00;37.40
37560;DHT22;23398;50.928;7.084;2023-07-13T15:25:26;31.00;37.40
37560;DHT22;23398;50.928;7.084;2023-07-13T15:27:54;31.00;37.90
37560;DHT22;23398;50.928;7.084;2023-07-13T15:30:20;31.00;37.20
37560;DHT22;23398;50.928;7.084;2023-07-13T15:32:47;31.10;37.10
37560;DHT22;23398;50.928;7.084;2023-07-13T15:35:17;31.00;37.00
37560;DHT22;23398;50.928;7.084;2023-07-13T15:37:43;31.00;37.00
37560;DHT22;23398;50.928;7.084;2023-07-13T15:40:10;31.00;36.90
37560;DHT22;23398;50.928;7.084;2023-07-13T15:42:37;31.00;36.70
37560;DHT22;23398;50.928;7.084;2023-07-13T15:45:04;31.10;38.00
37560;DHT22;23398;50.928;7.084;2023-07-13T15:47:31;30.90;37.00
37560;DHT22;23398;50.928;7.084;2023-07-13T15:49:57;30.90;36.80
37560;DHT22;23398;50.928;7.084;2023-07-13T15:52:24;30.80;36.90
37560;DHT22;23398;50.928;7.084;2023-07-13T15:54:50;30.80;37.00
37560;DHT22;23398;50.928;7.084;2023-07-13T15:57:16;30.70;37.00
37560;DHT22;23398;50.928;7.084;2023-07-13T15:59:42;30.70;37.40
37560;DHT22;23398;50.928;7.084;2023-07-13T16:02:18;30.60;37.10
37560;DHT22;23398;50.928;7.084;2023-07-13T16:04:45;30.50;37.40
37560;DHT22;23398;50.928;7.084;2023-07-13T16:07:12;30.40;37.70
37560;DHT22;23398;50.928;7.084;2023-07-13T16:09:40;30.30;37.90
37560;DHT22;23398;50.928;7.084;2023-07-13T16:12:13;30.20;38.00
37560;DHT22;23398;50.928;7.084;2023-07-13T16:14:40;30.10;38.50
37560;DHT22;23398;50.928;7.084;2023-07-13T16:17:10;30.00;38.20
37560;DHT22;23398;50.928;7.084;2023-07-13T16:19:36;29.80;38.40
37560;DHT22;23398;50.928;7.084;2023-07-13T16:22:02;29.70;39.50
37560;DHT22;23398;50.928;7.084;2023-07-13T16:24:31;29.50;40.10
37560;DHT22;23398;50.928;7.084;2023-07-13T16:26:57;29.30;40.60